createdAt,value
2023-01-19T00:03:23.542Z,-8.80
2023-01-19T00:08:29.043Z,-8.67
2023-01-19T00:13:34.739Z,-8.51
2023-01-19T00:18:40.617Z,-8.74
2023-01-19T00:23:51.659Z,-8.89
2023-01-19T00:28:57.704Z,-9.09
2023-01-19T00:34:05.019Z,-9.27
2023-01-19T00:39:10.597Z,-9.69
2023-01-19T00:44:16.190Z,-9.83
2023-01-19T00:49:21.749Z,-9.63
2023-01-19T00:54:27.695Z,-9.45
2023-01-19T00:59:35.752Z,-9.65
2023-01-19T01:04:41.622Z,-9.84
2023-01-19T01:09:47.156Z,-9.96
2023-01-19T01:14:52.752Z,-10.15
2023-01-19T01:19:58.604Z,-10.03
2023-01-19T01:25:04.092Z,-10.43
2023-01-19T01:30:11.920Z,-10.78
2023-01-19T01:35:18.023Z,-10.88
2023-01-19T01:40:23.583Z,-11.06
2023-01-19T01:45:33.594Z,-11.40
2023-01-19T01:51:02.653Z,-11.35
2023-01-19T01:56:16.543Z,-11.51
2023-01-19T02:01:41.815Z,-11.62
2023-01-19T02:07:09.031Z,-11.74
2023-01-19T02:12:34.100Z,-11.35
2023-01-19T02:17:39.665Z,-11.21
2023-01-19T02:22:51.122Z,-11.35
2023-01-19T02:27:57.746Z,-11.59
2023-01-19T02:33:03.574Z,-11.90
2023-01-19T02:38:10.676Z,-11.82
2023-01-19T02:43:18.685Z,-11.34
2023-01-19T02:48:24.117Z,-11.82
2023-01-19T02:53:55.689Z,-11.88
2023-01-19T02:59:28.423Z,-11.63
2023-01-19T03:04:53.236Z,-11.77
2023-01-19T03:10:26.888Z,-11.65
2023-01-19T03:15:45.722Z,-11.55
2023-01-19T03:20:57.915Z,-11.54
2023-01-19T03:26:05.937Z,-11.31
2023-01-19T03:31:24.503Z,-11.37
2023-01-19T03:36:56.281Z,-11.30
2023-01-19T03:42:12.683Z,-11.52
2023-01-19T03:47:18.450Z,-11.42
2023-01-19T03:52:33.755Z,-11.60
2023-01-19T03:57:39.401Z,-11.74
2023-01-19T04:02:44.952Z,-11.77
2023-01-19T04:07:51.787Z,-12.00
2023-01-19T04:13:01.733Z,-12.09
2023-01-19T04:18:07.623Z,-11.83
2023-01-19T04:23:13.185Z,-11.50
2023-01-19T04:28:18.755Z,-11.69
2023-01-19T04:33:23.988Z,-11.43
2023-01-19T04:38:29.339Z,-11.05
2023-01-19T04:43:34.799Z,-11.26
2023-01-19T04:48:41.332Z,-11.11
2023-01-19T04:53:46.409Z,-11.35
2023-01-19T04:58:50.517Z,-11.51
2023-01-19T05:03:54.829Z,-10.92
2023-01-19T05:08:59.456Z,-10.22
2023-01-19T05:14:03.887Z,-9.70
2023-01-19T05:19:09.762Z,-9.63
2023-01-19T05:24:14.919Z,-9.25
2023-01-19T05:29:19.231Z,-9.02
2023-01-19T05:34:23.659Z,-8.32
2023-01-19T05:39:30.232Z,-8.35
2023-01-19T05:44:34.610Z,-8.18
2023-01-19T05:49:38.879Z,-7.77
2023-01-19T05:54:43.076Z,-7.72
2023-01-19T05:59:47.659Z,-7.64
2023-01-19T06:04:52.069Z,-7.18
2023-01-19T06:09:56.471Z,-7.29
2023-01-19T06:15:01.064Z,-7.46
2023-01-19T06:20:08.284Z,-7.18
2023-01-19T06:25:13.222Z,-7.40
2023-01-19T06:30:18.228Z,-6.85
2023-01-19T06:35:22.888Z,-6.59
2023-01-19T06:40:27.428Z,-5.90
2023-01-19T06:45:33.375Z,-6.08
2023-01-19T06:50:37.790Z,-6.34
2023-01-19T06:55:42.088Z,-6.08
2023-01-19T07:00:46.404Z,-5.79
2023-01-19T07:05:54.461Z,-5.34
2023-01-19T07:11:24.368Z,-5.01
2023-01-19T07:16:30.978Z,-5.45
2023-01-19T07:21:35.250Z,-5.54
2023-01-19T07:26:39.587Z,-5.29
2023-01-19T07:31:44.155Z,-5.20
2023-01-19T07:36:49.596Z,-5.11
2023-01-19T07:41:53.945Z,-4.75
2023-01-19T07:47:03.479Z,-4.60
2023-01-19T07:52:07.619Z,-4.52
2023-01-19T07:57:11.930Z,-4.35
2023-01-19T08:02:17.498Z,-4.42
2023-01-19T08:07:22.169Z,-4.22
2023-01-19T08:12:26.500Z,-3.92
2023-01-19T08:17:30.720Z,-3.92
2023-01-19T08:22:34.984Z,-3.91
2023-01-19T08:27:39.269Z,-4.30
2023-01-19T08:32:43.602Z,-4.24
2023-01-19T08:37:47.963Z,-4.41
2023-01-19T08:42:52.299Z,-4.08
2023-01-19T08:47:59.694Z,-3.83
2023-01-19T08:53:07.503Z,-4.09
2023-01-19T08:58:12.364Z,-4.09
2023-01-19T09:03:16.706Z,-3.87
2023-01-19T09:08:20.965Z,-3.91
2023-01-19T09:13:25.395Z,-3.64
2023-01-19T09:18:29.658Z,-3.51
2023-01-19T09:23:33.971Z,-3.22
2023-01-19T09:28:39.140Z,-3.41
2023-01-19T09:33:43.468Z,-3.88
2023-01-19T09:38:47.754Z,-4.11
2023-01-19T09:44:00.424Z,-3.63
2023-01-19T09:49:13.656Z,-3.46
2023-01-19T09:54:36.452Z,-3.12
2023-01-19T09:59:42.200Z,-3.04
2023-01-19T10:05:04.544Z,-3.00
2023-01-19T10:10:29.526Z,-2.94
2023-01-19T10:15:59.095Z,-2.70
2023-01-19T10:21:12.613Z,-2.25
2023-01-19T10:26:25.163Z,-2.43
2023-01-19T10:31:29.556Z,-2.22
2023-01-19T10:36:38.924Z,-1.94
2023-01-19T10:41:45.229Z,-1.85
2023-01-19T10:46:51.374Z,-1.69
2023-01-19T10:51:58.283Z,-2.13
2023-01-19T10:57:05.952Z,-1.70
2023-01-19T11:02:19.424Z,-1.66
2023-01-19T11:07:36.274Z,-1.47
2023-01-19T11:12:46.707Z,-1.45
2023-01-19T11:17:52.559Z,-1.48
2023-01-19T11:23:16.634Z,-1.52
2023-01-19T11:28:38.212Z,-1.34
2023-01-19T11:33:52.503Z,-1.51
2023-01-19T11:39:01.484Z,-1.29
2023-01-19T11:44:25.413Z,-1.51
2023-01-19T11:49:39.814Z,-1.12
2023-01-19T11:55:24.034Z,-0.79
2023-01-19T12:00:40.593Z,-0.81
2023-01-19T12:05:50.042Z,-0.67
2023-01-19T12:10:58.593Z,-0.73
2023-01-19T12:16:14.452Z,-0.70
2023-01-19T12:21:20.091Z,-0.73
2023-01-19T12:26:34.756Z,-0.85
2023-01-19T12:31:41.273Z,-0.82
2023-01-19T12:36:45.851Z,-0.88
2023-01-19T12:42:04.438Z,-0.94
2023-01-19T12:47:15.010Z,-0.86
2023-01-19T12:52:25.630Z,-0.75
2023-01-19T12:57:50.005Z,-0.98
2023-01-19T13:03:03.202Z,-1.43
2023-01-19T13:08:07.476Z,-1.78
2023-01-19T13:13:20.851Z,-1.96
2023-01-19T13:18:29.454Z,-2.18
2023-01-19T13:23:52.029Z,-2.33
2023-01-19T13:29:06.908Z,-2.26
2023-01-19T13:34:17.849Z,-2.17
2023-01-19T13:39:37.486Z,-2.35
2023-01-19T13:44:54.232Z,-2.30
2023-01-19T13:49:59.527Z,-2.35
2023-01-19T13:55:06.033Z,-2.78
2023-01-19T14:00:19.309Z,-2.73
2023-01-19T14:05:39.850Z,-2.81
2023-01-19T14:10:47.834Z,-3.13
2023-01-19T14:15:56.800Z,-2.99
2023-01-19T14:21:14.116Z,-3.03
2023-01-19T14:26:52.096Z,-2.88
2023-01-19T14:32:15.311Z,-2.78
2023-01-19T14:48:49.232Z,-2.75
2023-01-19T14:53:58.826Z,-2.78
2023-01-19T14:59:11.605Z,-2.70
2023-01-19T15:04:17.049Z,-2.23
2023-01-19T15:09:22.859Z,-1.92
2023-01-19T15:14:28.419Z,-2.15
2023-01-19T15:19:34.714Z,-2.15
2023-01-19T15:24:41.535Z,-1.88
2023-01-19T15:29:47.098Z,-2.06
2023-01-19T15:34:53.182Z,-2.19
2023-01-19T15:39:58.745Z,-2.51
2023-01-19T15:45:17.847Z,-2.16
2023-01-19T15:50:24.199Z,-2.00
2023-01-19T15:55:30.326Z,-2.25
2023-01-19T16:00:36.766Z,-2.38
2023-01-19T16:05:43.747Z,-2.57
2023-01-19T16:10:49.396Z,-2.88
2023-01-19T16:15:54.884Z,-3.06
2023-01-19T16:21:01.035Z,-3.06
2023-01-19T16:26:09.630Z,-3.47
2023-01-19T16:31:17.182Z,-3.55
2023-01-19T16:36:29.416Z,-3.35
2023-01-19T16:41:36.284Z,-3.64
2023-01-19T16:46:44.151Z,-3.84
2023-01-19T16:51:50.485Z,-4.12
2023-01-19T16:56:57.644Z,-4.15
2023-01-19T17:02:03.783Z,-4.41
2023-01-19T17:07:09.464Z,-4.37
2023-01-19T17:12:15.195Z,-4.48
2023-01-19T17:17:20.854Z,-4.46
2023-01-19T17:22:26.338Z,-4.97
2023-01-19T17:27:32.059Z,-4.69
2023-01-19T17:32:37.516Z,-4.58
2023-01-19T17:37:43.014Z,-4.65
2023-01-19T17:42:48.653Z,-4.69
2023-01-19T17:47:54.215Z,-4.69
2023-01-19T17:52:59.665Z,-4.56
2023-01-19T17:58:05.354Z,-4.80
2023-01-19T18:03:10.849Z,-4.81
2023-01-19T18:08:16.285Z,-5.32
2023-01-19T18:13:22.624Z,-5.53
2023-01-19T18:18:28.343Z,-5.89
2023-01-19T18:23:34.143Z,-6.56
2023-01-19T18:28:39.732Z,-6.12
2023-01-19T18:33:45.749Z,-6.23
2023-01-19T18:38:51.546Z,-6.12
2023-01-19T18:44:00.743Z,-6.39
2023-01-19T18:49:06.557Z,-6.38
2023-01-19T18:54:12.866Z,-6.46
2023-01-19T18:59:18.743Z,-6.40
2023-01-19T19:04:24.631Z,-6.40
2023-01-19T19:09:30.084Z,-7.18
2023-01-19T19:14:35.679Z,-7.00
2023-01-19T19:19:41.229Z,-7.04
2023-01-19T19:24:46.824Z,-7.14
2023-01-19T19:29:52.994Z,-7.19
2023-01-19T19:34:59.521Z,-7.33
2023-01-19T19:40:05.258Z,-7.23
2023-01-19T19:45:11.810Z,-6.94
2023-01-19T19:50:17.668Z,-7.21
2023-01-19T19:55:23.960Z,-7.57
2023-01-19T20:00:29.655Z,-7.68
2023-01-19T20:05:36.908Z,-7.64
2023-01-19T20:10:42.485Z,-7.99
2023-01-19T20:15:48.419Z,-7.53
2023-01-19T20:20:53.678Z,-7.59
2023-01-19T20:25:59.491Z,-7.71
2023-01-19T20:31:20.652Z,-7.55
2023-01-19T20:36:27.002Z,-7.34
2023-01-19T20:41:32.449Z,-7.26
2023-01-19T20:46:37.996Z,-7.68
2023-01-19T20:51:45.790Z,-8.07
2023-01-19T20:56:51.344Z,-7.53
2023-01-19T21:01:57.312Z,-8.27
2023-01-19T21:07:02.905Z,-7.57
2023-01-19T21:12:10.301Z,-7.77
2023-01-19T21:17:15.792Z,-7.49
2023-01-19T21:22:21.207Z,-7.33
2023-01-19T21:27:26.749Z,-7.94
2023-01-19T21:32:32.082Z,-7.29
2023-01-19T21:37:37.573Z,-7.16
2023-01-19T21:42:43.296Z,-7.19
2023-01-19T21:47:48.910Z,-7.49
2023-01-19T21:52:54.282Z,-7.37
2023-01-19T21:58:00.281Z,-7.24
2023-01-19T22:03:06.262Z,-7.61
2023-01-19T22:08:11.761Z,-7.70
2023-01-19T22:13:17.345Z,-7.90
2023-01-19T22:18:22.981Z,-7.74
2023-01-19T22:23:28.384Z,-8.00
2023-01-19T22:28:34.751Z,-7.46
2023-01-19T22:33:41.169Z,-7.22
2023-01-19T22:38:56.247Z,-7.13
2023-01-19T22:44:29.194Z,-7.28
2023-01-19T22:49:34.638Z,-7.45
2023-01-19T22:54:40.226Z,-7.45
2023-01-19T22:59:46.001Z,-7.18
2023-01-19T23:04:51.426Z,-7.07
2023-01-19T23:09:56.647Z,-7.24
2023-01-19T23:15:02.306Z,-8.08
2023-01-19T23:20:09.542Z,-8.25
2023-01-19T23:25:15.396Z,-8.34
2023-01-19T23:30:21.102Z,-8.55
2023-01-19T23:35:27.073Z,-9.22
2023-01-19T23:40:32.775Z,-9.01
2023-01-19T23:45:38.511Z,-9.59
2023-01-19T23:50:43.999Z,-9.60
2023-01-19T23:55:50.118Z,-9.29
